Time;durP1;ratioP1;P1;durP2;ratioP2;P2;SDS_P1;SDS_P2;PMS_P1;PMS_P2;Temp;Humidity;BMP_temperature;BMP_pressure;BME280_temperature;BME280_humidity;BME280_pressure;Samples;Min_cycle;Max_cycle;Signal;HPM_P1;HPM_P2
2022/09/26 00:00:43;;;;;;;;;;;;;;;4.35;52.42;95002.44;5051043;28;20354;-68
2022/09/26 00:03:09;;;;;;;;;;;;;;;4.37;51.75;95000.50;5052602;28;20074;-68
2022/09/26 00:05:35;;;;;;;;;;;;;;;4.36;52.58;95001.47;5041267;28;19958;-68
2022/09/26 00:08:00;;;;;;;;;;;;;;;4.37;54.28;95000.50;5053549;28;19917;-68
2022/09/26 00:10:25;;;;;;;;;;;;;;;4.34;52.94;94990.25;5053941;28;19948;-68
2022/09/26 00:12:52;;;;;;;;;;;;;;;4.31;50.75;94986.13;5052851;28;19920;-68
2022/09/26 00:15:17;;;;;;;;;;;;;;;4.29;50.24;94984.63;5051503;28;19917;-68
2022/09/26 00:17:42;;;;;;;;;;;;;;;4.29;53.89;94980.16;5054395;28;20419;-68
2022/09/26 00:20:08;;;;;;;;;;;;;;;4.35;52.97;94984.00;5051786;28;20354;-68
2022/09/26 00:22:33;;;;;;;;;;;;;;;4.26;50.06;94985.78;5050184;28;19927;-68
2022/09/26 00:24:58;;;;;;;;;;;;;;;4.26;52.85;94983.13;5051185;28;20466;-68
2022/09/26 00:27:23;;;;;;;;;;;;;;;4.28;51.20;94988.22;5052244;28;20456;-68
2022/09/26 00:29:49;;;;;;;;;;;;;;;4.30;50.56;94987.13;5053724;28;19952;-68
2022/09/26 00:32:14;;;;;;;;;;;;;;;4.31;49.97;94983.50;5054193;28;20459;-68
2022/09/26 00:34:39;;;;;;;;;;;;;;;4.37;54.79;94968.88;5049917;28;20590;-68
2022/09/26 00:37:04;;;;;;;;;;;;;;;4.38;55.14;94970.50;5054429;28;19916;-68
2022/09/26 00:39:30;;;;;;;;;;;;;;;4.43;53.55;94970.88;5052807;28;19921;-68
2022/09/26 00:41:55;;;;;;;;;;;;;;;4.37;53.91;94971.50;5054856;28;20656;-68
2022/09/26 00:44:38;;;;;;;;;;;;;;;4.41;53.57;94972.84;5055201;28;19917;-68
2022/09/26 00:47:04;;;;;;;;;;;;;;;4.38;55.95;94962.59;5055302;28;20364;-68
2022/09/26 00:49:39;;;;;;;;;;;;;;;4.39;52.18;94961.63;5041052;28;20000;-68
2022/09/26 00:52:05;;;;;;;;;;;;;;;4.40;50.07;94963.28;5036965;28;20492;-68
2022/09/26 00:54:31;;;;;;;;;;;;;;;4.46;51.97;94948.66;5057787;28;19917;-68
2022/09/26 00:56:57;;;;;;;;;;;;;;;4.52;51.81;94948.03;5045642;28;19924;-68
2022/09/26 00:59:49;;;;;;;;;;;;;;;4.61;53.27;94937.50;5055310;28;19921;-68
2022/09/26 01:02:15;;;;;;;;;;;;;;;4.71;52.79;94940.88;5049350;28;20467;-68
2022/09/26 01:04:41;;;;;;;;;;;;;;;4.73;51.14;94933.63;5037823;28;20044;-69
2022/09/26 01:07:09;;;;;;;;;;;;;;;4.71;52.10;94931.16;5055312;28;20067;-68
2022/09/26 01:09:34;;;;;;;;;;;;;;;4.74;53.68;94924.75;5040215;28;19912;-68
2022/09/26 01:12:00;;;;;;;;;;;;;;;4.75;52.02;94920.28;5037849;28;19924;-68
2022/09/26 01:14:25;;;;;;;;;;;;;;;4.73;51.31;94919.63;5037087;28;19919;-69
2022/09/26 01:16:51;;;;;;;;;;;;;;;4.78;53.49;94918.16;5054246;28;19917;-69
2022/09/26 01:19:36;;;;;;;;;;;;;;;4.84;52.70;94912.22;5053095;28;19952;-68
2022/09/26 01:22:08;;;;;;;;;;;;;;;4.89;52.86;94906.50;5045272;28;20011;-69
2022/09/26 01:24:45;;;;;;;;;;;;;;;4.92;52.71;94900.91;5053673;28;19917;-68
2022/09/26 01:27:13;;;;;;;;;;;;;;;4.97;50.01;94901.22;5053463;28;20015;-69
2022/09/26 01:29:59;;;;;;;;;;;;;;;5.07;52.14;94893.22;5051721;28;19935;-68
2022/09/26 01:32:48;;;;;;;;;;;;;;;5.07;48.50;94895.84;5054538;28;20322;-68
2022/09/26 01:35:33;;;;;;;;;;;;;;;5.15;52.41;94900.34;5048054;28;19967;-69
2022/09/26 01:38:18;;;;;;;;;;;;;;;5.11;51.69;94885.81;5042337;28;19955;-69
2022/09/26 01:40:52;;;;;;;;;;;;;;;5.11;50.48;94898.16;5049110;28;20194;-68
2022/09/26 01:43:40;;;;;;;;;;;;;;;5.09;50.96;94888.63;5040040;28;19916;-68
2022/09/26 01:46:15;;;;;;;;;;;;;;;5.18;51.98;94886.81;5040748;28;19912;-68
2022/09/26 01:48:46;;;;;;;;;;;;;;;5.26;51.35;94885.16;5062323;28;19922;-69
2022/09/26 01:51:14;;;;;;;;;;;;;;;5.28;50.56;94880.56;5050795;28;19975;-68
2022/09/26 01:53:46;;;;;;;;;;;;;;;5.35;51.86;94878.94;5047089;28;20019;-68
2022/09/26 01:56:12;;;;;;;;;;;;;;;5.33;49.43;94880.88;5035773;28;19916;-69
2022/09/26 01:58:43;;;;;;;;;;;;;;;5.42;53.45;94877.28;5057175;28;19928;-69
2022/09/26 02:01:09;;;;;;;;;;;;;;;5.41;51.44;94859.78;5056281;28;20018;-69
2022/09/26 02:03:51;;;;;;;;;;;;;;;5.44;51.29;94864.72;5037274;28;20120;-68
2022/09/26 02:06:21;;;;;;;;;;;;;;;5.53;53.87;94870.00;5029641;28;19943;-69
2022/09/26 02:08:50;;;;;;;;;;;;;;;5.56;51.20;94865.25;5056119;28;19912;-68
2022/09/26 02:11:17;;;;;;;;;;;;;;;5.62;51.72;94863.75;5046616;28;19921;-67
2022/09/26 02:13:45;;;;;;;;;;;;;;;5.71;52.32;94859.28;5039858;28;19928;-68
2022/09/26 02:16:13;;;;;;;;;;;;;;;5.73;49.14;94858.16;5047258;28;20400;-68
2022/09/26 02:18:42;;;;;;;;;;;;;;;5.80;48.71;94857.47;5051926;28;19924;-68
2022/09/26 02:21:11;;;;;;;;;;;;;;;5.96;52.97;94846.06;5048745;28;19935;-68
2022/09/26 02:23:37;;;;;;;;;;;;;;;5.98;50.43;94844.91;5038380;28;19931;-68
2022/09/26 02:26:02;;;;;;;;;;;;;;;6.05;52.06;94842.41;5046193;28;20420;-68
2022/09/26 02:28:28;;;;;;;;;;;;;;;6.04;52.36;94843.41;5055304;28;20379;-69
2022/09/26 02:30:53;;;;;;;;;;;;;;;6.10;51.60;94831.31;5036791;28;20126;-68
2022/09/26 02:33:18;;;;;;;;;;;;;;;6.20;54.25;94831.97;5037685;28;19916;-68
2022/09/26 02:35:52;;;;;;;;;;;;;;;6.23;53.75;94826.31;5052449;28;19920;-68
2022/09/26 02:38:18;;;;;;;;;;;;;;;6.27;51.17;94820.69;5051261;28;20288;-68
2022/09/26 02:40:52;;;;;;;;;;;;;;;6.29;53.46;94818.72;5048477;28;20000;-68
2022/09/26 02:43:18;;;;;;;;;;;;;;;6.37;54.04;94818.69;5028036;28;19924;-68
2022/09/26 02:45:51;;;;;;;;;;;;;;;6.38;53.79;94809.75;5049270;28;19919;-68
2022/09/26 02:48:33;;;;;;;;;;;;;;;6.41;51.54;94809.41;5033864;28;19928;-68
2022/09/26 02:51:07;;;;;;;;;;;;;;;6.50;52.84;94795.19;5033248;28;20447;-68
2022/09/26 02:53:37;;;;;;;;;;;;;;;6.62;51.78;94795.63;5052151;28;19920;-68
2022/09/26 02:56:12;;;;;;;;;;;;;;;6.77;51.75;94790.44;5047439;28;19925;-68
2022/09/26 02:58:46;;;;;;;;;;;;;;;6.85;49.89;94794.03;5047322;28;19921;-68
2022/09/26 03:01:14;;;;;;;;;;;;;;;6.96;51.43;94782.19;5046780;28;20415;-68
2022/09/26 03:03:45;;;;;;;;;;;;;;;7.07;52.33;94792.38;5034738;28;20117;-68
2022/09/26 03:06:12;;;;;;;;;;;;;;;7.06;51.59;94777.50;5034530;28;19917;-68
2022/09/26 03:08:38;;;;;;;;;;;;;;;7.13;52.03;94770.50;5054298;28;19951;-68
2022/09/26 03:11:04;;;;;;;;;;;;;;;7.22;51.70;94773.94;5053066;28;19983;-68
2022/09/26 03:13:32;;;;;;;;;;;;;;;7.26;51.58;94772.56;5037936;28;19917;-68
2022/09/26 03:15:58;;;;;;;;;;;;;;;7.37;52.38;94767.84;5051058;28;19968;-68
2022/09/26 03:18:25;;;;;;;;;;;;;;;7.41;53.04;94769.13;5036803;28;19953;-68
2022/09/26 03:20:53;;;;;;;;;;;;;;;7.52;52.85;94768.69;5038954;28;19971;-69
2022/09/26 03:23:22;;;;;;;;;;;;;;;7.64;52.02;94766.44;5053782;28;19959;-68
2022/09/26 03:25:55;;;;;;;;;;;;;;;7.75;50.19;94759.88;5051989;28;19920;-68
2022/09/26 03:28:21;;;;;;;;;;;;;;;7.78;51.74;94759.53;5056836;28;19960;-68
2022/09/26 03:30:46;;;;;;;;;;;;;;;7.66;48.65;94756.47;5049885;28;20433;-68
2022/09/26 03:33:11;;;;;;;;;;;;;;;7.75;50.72;94751.91;5050001;28;20686;-69
2022/09/26 03:35:36;;;;;;;;;;;;;;;7.81;52.14;94746.91;5053366;28;19971;-68
2022/09/26 03:38:02;;;;;;;;;;;;;;;7.94;51.68;94741.00;5058581;28;19956;-69
2022/09/26 03:40:27;;;;;;;;;;;;;;;7.96;48.58;94731.84;5050382;28;19923;-69
2022/09/26 03:42:52;;;;;;;;;;;;;;;8.09;48.67;94733.06;5044811;28;19967;-68
2022/09/26 03:45:18;;;;;;;;;;;;;;;8.05;49.90;94728.13;5048276;28;19931;-69
2022/09/26 03:47:44;;;;;;;;;;;;;;;7.77;48.23;94726.13;5045109;28;20556;-69
2022/09/26 03:50:09;;;;;;;;;;;;;;;7.76;49.62;94721.75;5046572;28;19944;-69
2022/09/26 03:52:35;;;;;;;;;;;;;;;8.00;48.07;94719.06;5048753;28;20323;-69
2022/09/26 03:55:00;;;;;;;;;;;;;;;7.92;48.43;94718.16;5054296;28;19920;-68
2022/09/26 03:57:25;;;;;;;;;;;;;;;8.05;48.25;94717.50;5045994;28;19954;-69
2022/09/26 03:59:51;;;;;;;;;;;;;;;8.09;48.30;94707.34;5048499;28;20001;-69
2022/09/26 04:02:16;;;;;;;;;;;;;;;7.87;48.07;94706.47;5049353;28;20447;-68
2022/09/26 04:04:41;;;;;;;;;;;;;;;7.85;48.22;94703.97;5053668;28;19969;-68
2022/09/26 04:07:06;;;;;;;;;;;;;;;8.05;47.71;94696.31;5047207;28;20457;-68
2022/09/26 04:09:32;;;;;;;;;;;;;;;7.96;49.28;94689.44;5052329;28;20349;-68
2022/09/26 04:11:57;;;;;;;;;;;;;;;7.71;49.12;94688.88;5044689;28;20033;-68
2022/09/26 04:14:22;;;;;;;;;;;;;;;7.86;48.43;94687.06;5051097;28;19968;-68
2022/09/26 04:16:47;;;;;;;;;;;;;;;7.88;48.36;94684.25;5043461;28;19985;-68
2022/09/26 04:19:13;;;;;;;;;;;;;;;8.01;49.37;94676.47;5047479;28;20472;-68
2022/09/26 04:21:39;;;;;;;;;;;;;;;7.85;47.99;94671.38;5055126;28;19965;-68
2022/09/26 04:24:04;;;;;;;;;;;;;;;7.98;48.96;94674.19;5044609;28;20437;-69
2022/09/26 04:26:30;;;;;;;;;;;;;;;7.94;48.81;94667.63;5051118;28;19969;-68
2022/09/26 04:28:55;;;;;;;;;;;;;;;7.89;48.71;94664.69;5046831;28;20522;-68
2022/09/26 04:31:21;;;;;;;;;;;;;;;7.91;48.33;94665.31;5044483;28;20295;-68
2022/09/26 04:33:46;;;;;;;;;;;;;;;7.97;48.05;94659.31;5055491;28;19969;-68
2022/09/26 04:36:12;;;;;;;;;;;;;;;7.84;48.56;94659.13;5043410;28;19993;-68
2022/09/26 04:38:38;;;;;;;;;;;;;;;7.81;48.63;94648.88;5044657;28;20310;-68
2022/09/26 04:41:16;;;;;;;;;;;;;;;7.85;48.43;94652.81;5053926;28;20269;-68
2022/09/26 04:43:41;;;;;;;;;;;;;;;7.63;49.11;94640.28;5047308;28;20007;-68
2022/09/26 04:46:07;;;;;;;;;;;;;;;7.64;48.85;94646.41;5047503;28;19965;-68
2022/09/26 04:48:32;;;;;;;;;;;;;;;7.74;49.00;94633.69;5045424;28;20683;-68
2022/09/26 04:50:58;;;;;;;;;;;;;;;7.55;49.51;94635.06;5048660;28;20046;-68
2022/09/26 04:53:23;;;;;;;;;;;;;;;7.56;49.29;94628.78;5050730;28;20182;-68
2022/09/26 04:55:48;;;;;;;;;;;;;;;7.64;49.31;94627.84;5057427;28;19996;-68
2022/09/26 04:58:14;;;;;;;;;;;;;;;6.95;50.57;94624.44;5047082;28;20477;-68
2022/09/26 05:00:44;;;;;;;;;;;;;;;7.30;50.37;94626.56;5045823;28;20385;-69
2022/09/26 05:03:11;;;;;;;;;;;;;;;7.48;50.28;94624.38;5042194;28;20466;-68
2022/09/26 05:05:37;;;;;;;;;;;;;;;7.44;49.69;94623.13;5042894;28;20365;-68
2022/09/26 05:08:04;;;;;;;;;;;;;;;7.51;49.81;94615.25;5042496;28;20288;-68
2022/09/26 05:10:29;;;;;;;;;;;;;;;7.26;50.53;94619.00;5058598;28;19976;-68
2022/09/26 05:12:57;;;;;;;;;;;;;;;7.20;51.27;94611.78;5052507;28;19972;-68
2022/09/26 05:15:22;;;;;;;;;;;;;;;7.44;50.91;94601.13;5049263;28;20081;-68
2022/09/26 05:17:47;;;;;;;;;;;;;;;7.53;49.86;94605.31;5044728;28;20156;-68
2022/09/26 05:20:13;;;;;;;;;;;;;;;7.22;50.56;94601.84;5047632;28;20013;-68
2022/09/26 05:22:38;;;;;;;;;;;;;;;7.33;50.75;94599.72;5053142;28;19996;-68
2022/09/26 05:27:47;;;;;;;;;;;;;;;7.52;50.95;94585.94;5050470;28;20059;-68
2022/09/26 05:30:12;;;;;;;;;;;;;;;7.81;49.34;94585.28;5046766;28;19973;-68
2022/09/26 05:32:38;;;;;;;;;;;;;;;7.91;49.42;94584.00;5050051;28;20012;-68
2022/09/26 05:35:04;;;;;;;;;;;;;;;7.88;50.34;94586.19;5048237;28;20042;-69
2022/09/26 05:37:29;;;;;;;;;;;;;;;7.78;49.65;94584.66;5047842;28;19996;-68
2022/09/26 05:42:38;;;;;;;;;;;;;;;5.97;53.55;94583.47;5046244;28;20036;-68
2022/09/26 05:45:04;;;;;;;;;;;;;;;7.21;51.05;94583.50;5050325;28;20024;-68
2022/09/26 05:47:33;;;;;;;;;;;;;;;7.70;50.12;94575.97;5049245;28;20285;-68
2022/09/26 05:49:58;;;;;;;;;;;;;;;7.38;51.48;94577.00;5033712;28;20071;-68
2022/09/26 05:52:23;;;;;;;;;;;;;;;7.06;50.48;94579.00;5046757;28;20584;-68
2022/09/26 05:54:49;;;;;;;;;;;;;;;7.61;50.29;94572.59;5060748;28;20530;-68
2022/09/26 05:57:14;;;;;;;;;;;;;;;7.15;50.59;94575.25;5046028;28;20008;-69
2022/09/26 05:59:39;;;;;;;;;;;;;;;7.64;49.73;94575.69;5028007;28;19993;-68
2022/09/26 06:02:05;;;;;;;;;;;;;;;7.47;50.40;94577.72;5054643;28;20038;-68
2022/09/26 06:04:30;;;;;;;;;;;;;;;7.75;49.85;94569.09;5050494;28;19989;-68
2022/09/26 06:06:56;;;;;;;;;;;;;;;7.21;51.68;94570.25;5048642;28;19993;-68
2022/09/26 06:09:21;;;;;;;;;;;;;;;6.85;52.41;94566.47;5051462;28;20071;-68
2022/09/26 06:11:47;;;;;;;;;;;;;;;7.36;50.92;94570.25;5052498;28;20093;-68
2022/09/26 06:14:12;;;;;;;;;;;;;;;7.25;51.48;94574.97;5050625;28;19976;-68
2022/09/26 06:16:37;;;;;;;;;;;;;;;7.55;50.97;94566.19;5045207;28;19985;-68
2022/09/26 06:19:02;;;;;;;;;;;;;;;7.42;51.00;94569.53;5050202;28;19997;-68
2022/09/26 06:21:28;;;;;;;;;;;;;;;6.21;53.90;94569.28;5049767;28;20377;-69
2022/09/26 06:23:53;;;;;;;;;;;;;;;7.36;51.54;94568.44;5054860;28;19987;-68
2022/09/26 06:26:22;;;;;;;;;;;;;;;7.04;52.85;94566.97;5045589;28;20277;-69
2022/09/26 06:28:50;;;;;;;;;;;;;;;7.19;51.76;94561.66;5046677;28;19965;-68
2022/09/26 06:31:16;;;;;;;;;;;;;;;7.04;52.86;94557.19;5048649;28;19989;-68
2022/09/26 06:33:41;;;;;;;;;;;;;;;6.88;53.34;94563.47;5050236;28;19975;-68
2022/09/26 06:36:07;;;;;;;;;;;;;;;6.97;53.02;94553.63;5052156;28;19999;-68
2022/09/26 06:38:33;;;;;;;;;;;;;;;7.08;53.10;94550.53;5045651;28;19993;-68
2022/09/26 06:40:58;;;;;;;;;;;;;;;6.18;54.94;94553.78;5047310;28;19971;-68
2022/09/26 06:43:23;;;;;;;;;;;;;;;6.81;53.30;94549.31;5045321;28;20631;-68
2022/09/26 06:45:48;;;;;;;;;;;;;;;6.46;54.80;94549.78;5047185;28;20015;-68
2022/09/26 06:48:14;;;;;;;;;;;;;;;6.38;54.11;94555.94;5045765;28;19997;-68
2022/09/26 06:50:39;;;;;;;;;;;;;;;6.17;55.39;94546.03;5030437;28;20631;-68
2022/09/26 06:53:04;;;;;;;;;;;;;;;5.52;57.50;94546.25;5047272;28;20026;-66
2022/09/26 06:55:30;;;;;;;;;;;;;;;4.87;59.37;94552.41;5060961;28;20471;-66
2022/09/26 06:57:57;;;;;;;;;;;;;;;4.81;59.13;94542.50;5048189;28;19996;-66
2022/09/26 07:00:23;;;;;;;;;;;;;;;4.79;60.00;94533.94;5049671;28;19993;-66
2022/09/26 07:02:50;;;;;;;;;;;;;;;5.22;58.94;94536.31;5045959;28;20000;-66
2022/09/26 07:05:15;;;;;;;;;;;;;;;4.91;58.49;94550.22;5055500;28;19969;-66
2022/09/26 07:07:44;;;;;;;;;;;;;;;4.93;59.26;94535.06;5047314;28;20293;-67
2022/09/26 07:10:09;;;;;;;;;;;;;;;5.98;56.31;94525.19;5047076;28;20008;-67
2022/09/26 07:12:39;;;;;;;;;;;;;;;5.93;56.08;94534.63;5035612;28;20461;-67
2022/09/26 07:15:04;;;;;;;;;;;;;;;5.76;56.63;94518.91;5049617;28;20583;-67
2022/09/26 07:17:29;;;;;;;;;;;;;;;6.13;54.96;94530.50;5053045;28;20079;-67
2022/09/26 07:19:55;;;;;;;;;;;;;;;6.46;54.67;94521.50;5053128;28;20377;-67
2022/09/26 07:22:20;;;;;;;;;;;;;;;6.05;55.22;94513.94;5049235;28;20509;-67
2022/09/26 07:24:47;;;;;;;;;;;;;;;6.05;54.81;94521.84;5049534;28;20059;-67
2022/09/26 07:27:13;;;;;;;;;;;;;;;6.77;53.22;94510.00;5053367;28;19993;-68
2022/09/26 07:29:38;;;;;;;;;;;;;;;6.62;53.44;94506.50;5051044;28;19980;-68
2022/09/26 07:32:03;;;;;;;;;;;;;;;7.23;52.29;94507.34;5051331;28;19996;-68
2022/09/26 07:34:29;;;;;;;;;;;;;;;7.27;51.72;94506.81;5047932;28;20031;-69
2022/09/26 07:36:54;;;;;;;;;;;;;;;7.40;51.96;94494.72;5052374;28;19989;-67
2022/09/26 07:39:19;;;;;;;;;;;;;;;7.66;51.21;94496.03;5052645;28;19995;-67
2022/09/26 07:41:45;;;;;;;;;;;;;;;7.35;51.60;94499.78;5051392;28;20357;-68
2022/09/26 07:44:10;;;;;;;;;;;;;;;7.46;50.89;94499.28;5050793;28;19995;-68
2022/09/26 07:52:03;;;;;;;;;;;;;;;6.54;52.53;94483.63;5047141;28;20002;-68
2022/09/26 07:54:29;;;;;;;;;;;;;;;7.15;52.27;94479.97;5053697;28;20068;-68
2022/09/26 07:56:54;;;;;;;;;;;;;;;7.70;50.87;94476.13;5051248;28;20103;-68
2022/09/26 07:59:20;;;;;;;;;;;;;;;8.01;49.83;94472.38;5050074;28;19985;-69
2022/09/26 08:01:45;;;;;;;;;;;;;;;8.17;48.79;94470.47;5053657;28;20055;-68
2022/09/26 08:04:11;;;;;;;;;;;;;;;7.39;50.17;94474.56;5055895;28;19996;-69
2022/09/26 08:06:39;;;;;;;;;;;;;;;8.41;48.97;94458.63;5049359;28;20075;-69
2022/09/26 08:09:04;;;;;;;;;;;;;;;8.49;47.91;94467.44;5058140;28;19996;-69
2022/09/26 08:11:29;;;;;;;;;;;;;;;8.43;49.56;94464.56;5046202;28;20472;-67
2022/09/26 08:13:55;;;;;;;;;;;;;;;8.27;49.68;94460.34;5051192;28;20415;-67
2022/09/26 08:16:23;;;;;;;;;;;;;;;9.17;47.84;94456.22;5049071;28;20453;-68
2022/09/26 08:18:48;;;;;;;;;;;;;;;9.26;46.62;94458.72;5047763;28;20012;-67
2022/09/26 08:21:14;;;;;;;;;;;;;;;8.77;47.64;94453.34;5048345;28;20180;-68
2022/09/26 08:23:39;;;;;;;;;;;;;;;8.76;47.36;94451.69;5046679;28;20149;-68
2022/09/26 08:26:05;;;;;;;;;;;;;;;8.52;48.42;94457.28;5050932;28;20026;-68
2022/09/26 08:28:31;;;;;;;;;;;;;;;8.77;47.98;94448.84;5047387;28;19991;-68
2022/09/26 08:30:56;;;;;;;;;;;;;;;8.30;49.44;94448.56;5049719;28;19992;-68
2022/09/26 08:33:23;;;;;;;;;;;;;;;7.98;49.77;94451.53;5049372;28;19995;-68
2022/09/26 08:35:49;;;;;;;;;;;;;;;8.05;50.29;94454.25;5048279;28;20406;-68
2022/09/26 08:38:14;;;;;;;;;;;;;;;8.95;46.80;94444.91;5047367;28;20480;-67
2022/09/26 08:40:53;;;;;;;;;;;;;;;8.94;47.77;94438.72;5047395;28;20007;-68
2022/09/26 08:43:37;;;;;;;;;;;;;;;9.22;46.64;94437.06;5047891;28;20537;-68
2022/09/26 08:46:39;;;;;;;;;;;;;;;8.33;48.34;94445.50;5027848;28;19969;-68
2022/09/26 08:49:17;;;;;;;;;;;;;;;7.64;49.47;94458.31;5052210;28;20583;-68
2022/09/26 08:51:45;;;;;;;;;;;;;;;7.35;51.13;94449.47;5052081;28;20467;-68
2022/09/26 08:54:22;;;;;;;;;;;;;;;8.22;49.12;94436.25;5049407;28;20064;-68
2022/09/26 08:56:49;;;;;;;;;;;;;;;8.97;46.84;94432.25;5036970;28;19988;-68
2022/09/26 08:59:22;;;;;;;;;;;;;;;7.54;49.27;94435.63;5056843;28;20225;-68
2022/09/26 09:01:47;;;;;;;;;;;;;;;7.18;49.68;94448.84;5032699;28;20027;-68
2022/09/26 09:04:20;;;;;;;;;;;;;;;7.82;49.34;94427.97;5049704;28;19996;-68
2022/09/26 09:06:45;;;;;;;;;;;;;;;7.78;49.13;94436.28;5057819;28;20491;-68
2022/09/26 09:09:13;;;;;;;;;;;;;;;7.67;48.40;94463.25;5033668;28;19969;-69
2022/09/26 09:11:41;;;;;;;;;;;;;;;6.24;50.94;94441.25;5041130;28;19989;-68
2022/09/26 09:14:15;;;;;;;;;;;;;;;7.24;49.89;94448.91;5037012;28;19978;-68
2022/09/26 09:16:41;;;;;;;;;;;;;;;7.60;48.64;94434.03;5050520;28;19991;-68
2022/09/26 09:19:10;;;;;;;;;;;;;;;7.79;48.91;94423.88;5049040;28;20059;-69
2022/09/26 09:21:41;;;;;;;;;;;;;;;8.76;46.36;94427.81;5054112;28;20510;-68
2022/09/26 09:24:06;;;;;;;;;;;;;;;8.69;46.46;94425.13;5033089;28;20273;-68
2022/09/26 09:26:36;;;;;;;;;;;;;;;8.61;46.04;94430.59;5052747;28;20270;-68
2022/09/26 09:29:06;;;;;;;;;;;;;;;8.00;47.67;94438.94;5038897;28;20250;-68
2022/09/26 09:31:31;;;;;;;;;;;;;;;7.77;49.19;94432.00;5052468;28;20524;-68
2022/09/26 09:33:58;;;;;;;;;;;;;;;7.30;49.17;94457.13;5039249;28;19969;-68
2022/09/26 09:36:44;;;;;;;;;;;;;;;6.98;49.47;94439.66;5036668;28;20038;-68
2022/09/26 09:39:09;;;;;;;;;;;;;;;6.38;52.23;94444.91;5053100;28;19989;-67
2022/09/26 09:41:36;;;;;;;;;;;;;;;7.41;50.12;94446.88;5034769;28;19972;-67
2022/09/26 09:44:02;;;;;;;;;;;;;;;7.52;49.43;94439.47;5048759;28;20327;-68
2022/09/26 09:46:28;;;;;;;;;;;;;;;7.09;50.21;94446.31;5047907;28;19976;-68
2022/09/26 09:48:56;;;;;;;;;;;;;;;6.77;51.15;94454.44;5031345;28;20058;-67
2022/09/26 09:51:39;;;;;;;;;;;;;;;7.13;50.17;94436.16;5049169;28;19989;-67
2022/09/26 09:54:17;;;;;;;;;;;;;;;6.46;51.51;94433.44;5050614;28;20415;-68
2022/09/26 09:56:52;;;;;;;;;;;;;;;7.21;49.58;94432.59;5057497;28;19989;-68
2022/09/26 09:59:17;;;;;;;;;;;;;;;6.93;50.85;94420.84;5053643;28;20389;-68
2022/09/26 10:01:43;;;;;;;;;;;;;;;7.05;50.81;94423.03;5051098;28;20009;-68
2022/09/26 10:04:11;;;;;;;;;;;;;;;6.56;51.24;94452.53;5032291;28;20055;-68
2022/09/26 10:06:37;;;;;;;;;;;;;;;6.72;51.38;94419.78;5054091;28;20083;-68
2022/09/26 10:09:11;;;;;;;;;;;;;;;7.13;50.17;94423.75;5049305;28;20064;-68
2022/09/26 10:11:40;;;;;;;;;;;;;;;6.59;51.71;94423.06;5033781;28;19992;-67
2022/09/26 10:14:05;;;;;;;;;;;;;;;7.22;50.79;94413.88;5052789;28;19969;-67
2022/09/26 10:16:32;;;;;;;;;;;;;;;7.43;50.31;94416.72;5048062;28;20079;-68
2022/09/26 10:19:04;;;;;;;;;;;;;;;7.01;51.19;94404.88;5030557;28;20005;-67
2022/09/26 10:21:39;;;;;;;;;;;;;;;5.39;55.17;94407.75;5053610;28;20022;-67
2022/09/26 10:24:06;;;;;;;;;;;;;;;6.61;51.89;94409.66;5052925;28;19995;-67
2022/09/26 10:26:34;;;;;;;;;;;;;;;7.12;51.82;94402.75;5030305;28;20001;-68
2022/09/26 10:29:04;;;;;;;;;;;;;;;6.79;52.07;94405.81;5030453;28;20403;-67
2022/09/26 10:31:34;;;;;;;;;;;;;;;7.20;50.77;94413.25;5047830;28;20095;-67
2022/09/26 10:34:04;;;;;;;;;;;;;;;6.60;52.22;94408.03;5053385;28;20379;-67
2022/09/26 10:36:30;;;;;;;;;;;;;;;7.12;51.65;94402.75;5056203;28;19989;-67
2022/09/26 10:41:41;;;;;;;;;;;;;;;7.45;51.14;94394.34;5049874;28;20122;-67
2022/09/26 10:44:19;;;;;;;;;;;;;;;7.24;51.27;94398.63;5046283;28;20080;-67
2022/09/26 10:46:45;;;;;;;;;;;;;;;7.75;50.30;94383.63;5049940;28;20046;-67
2022/09/26 10:49:11;;;;;;;;;;;;;;;6.40;53.18;94413.84;5030201;28;20030;-67
2022/09/26 10:51:41;;;;;;;;;;;;;;;6.77;52.89;94393.59;5038223;28;20461;-67
2022/09/26 10:54:17;;;;;;;;;;;;;;;6.86;52.32;94396.13;5053645;28;20095;-68
2022/09/26 10:56:46;;;;;;;;;;;;;;;6.18;54.07;94407.59;5048690;28;20279;-67
2022/09/26 10:59:12;;;;;;;;;;;;;;;6.94;52.67;94398.69;5050833;28;20376;-67
2022/09/26 11:01:41;;;;;;;;;;;;;;;5.60;57.05;94398.34;5051638;28;19965;-67
2022/09/26 11:04:10;;;;;;;;;;;;;;;6.35;54.05;94402.97;5054613;28;19993;-68
2022/09/26 11:06:39;;;;;;;;;;;;;;;5.98;55.22;94389.59;5029371;28;19985;-67
2022/09/26 11:09:04;;;;;;;;;;;;;;;6.32;54.76;94398.06;5028009;28;20019;-67
2022/09/26 11:11:32;;;;;;;;;;;;;;;6.83;53.58;94392.03;5029137;28;19989;-66
2022/09/26 11:14:04;;;;;;;;;;;;;;;6.21;56.00;94392.22;5048593;28;19969;-67
2022/09/26 11:16:36;;;;;;;;;;;;;;;6.60;55.43;94385.03;5055416;28;19985;-68
2022/09/26 11:19:05;;;;;;;;;;;;;;;7.21;52.80;94382.31;5048621;28;20517;-68
2022/09/26 11:21:50;;;;;;;;;;;;;;;7.54;52.83;94385.28;5049917;28;20608;-68
2022/09/26 11:24:15;;;;;;;;;;;;;;;6.93;54.01;94383.00;5047243;28;19985;-68
2022/09/26 11:26:56;;;;;;;;;;;;;;;6.12;56.39;94378.25;5047097;28;19999;-68
2022/09/26 11:29:40;;;;;;;;;;;;;;;6.96;54.21;94374.69;5032505;28;19960;-68
2022/09/26 11:32:08;;;;;;;;;;;;;;;6.54;55.02;94369.09;5053997;28;19993;-68
2022/09/26 11:34:34;;;;;;;;;;;;;;;7.11;53.84;94364.09;5044571;28;19985;-68
2022/09/26 11:37:18;;;;;;;;;;;;;;;7.31;53.20;94366.13;5046237;28;20133;-68
2022/09/26 11:39:57;;;;;;;;;;;;;;;6.15;56.95;94355.91;5052204;28;20535;-68
2022/09/26 11:42:41;;;;;;;;;;;;;;;6.87;54.32;94361.56;5052821;28;20156;-68
2022/09/26 11:45:19;;;;;;;;;;;;;;;6.79;54.62;94359.03;5046504;28;20009;-68
2022/09/26 11:47:49;;;;;;;;;;;;;;;7.58;52.75;94353.13;5035214;28;20121;-68
2022/09/26 11:50:14;;;;;;;;;;;;;;;6.63;54.89;94355.59;5029932;28;19973;-68
2022/09/26 11:53:02;;;;;;;;;;;;;;;6.08;56.96;94350.53;5047804;28;19979;-67
2022/09/26 11:55:49;;;;;;;;;;;;;;;6.16;55.94;94349.66;5032246;28;19985;-68
2022/09/26 11:58:23;;;;;;;;;;;;;;;5.76;56.90;94359.59;5052099;28;19984;-68
2022/09/26 12:00:56;;;;;;;;;;;;;;;6.67;56.50;94340.19;5047028;28;20719;-68
2022/09/26 12:03:32;;;;;;;;;;;;;;;4.33;61.61;94335.84;5054647;28;20476;-68
2022/09/26 12:06:17;;;;;;;;;;;;;;;5.77;58.79;94321.63;5037860;28;20025;-68
2022/09/26 12:08:59;;;;;;;;;;;;;;;6.36;56.45;94317.38;5047878;28;19989;-68
2022/09/26 12:11:28;;;;;;;;;;;;;;;6.58;56.04;94328.06;5047333;28;19993;-68
2022/09/26 12:14:17;;;;;;;;;;;;;;;7.09;54.61;94311.31;5032576;28;19999;-68
2022/09/26 12:16:50;;;;;;;;;;;;;;;6.35;56.47;94305.16;5035635;28;20379;-68
2022/09/26 12:19:25;;;;;;;;;;;;;;;6.37;56.01;94303.16;5030042;28;20260;-68
2022/09/26 12:24:56;;;;;;;;;;;;;;;6.25;56.28;94305.44;5050997;28;20718;-68
2022/09/26 12:27:41;;;;;;;;;;;;;;;6.03;57.66;94280.75;5051610;28;20023;-68
2022/09/26 12:30:15;;;;;;;;;;;;;;;6.39;56.16;94269.41;5050730;28;19971;-68
2022/09/26 12:32:40;;;;;;;;;;;;;;;6.47;56.42;94271.16;5050313;28;20050;-68
2022/09/26 12:35:10;;;;;;;;;;;;;;;6.92;54.56;94267.56;5047566;28;19989;-68
2022/09/26 12:37:56;;;;;;;;;;;;;;;7.04;54.13;94263.41;5047125;28;20452;-68
2022/09/26 12:40:36;;;;;;;;;;;;;;;7.70;52.45;94250.94;5046136;28;19988;-68
2022/09/26 12:43:20;;;;;;;;;;;;;;;7.86;52.29;94239.22;5049357;28;20483;-68
2022/09/26 12:45:46;;;;;;;;;;;;;;;8.41;50.42;94242.97;5051535;28;19969;-67
2022/09/26 12:48:11;;;;;;;;;;;;;;;8.64;49.81;94241.84;5047076;28;19996;-68
2022/09/26 12:50:42;;;;;;;;;;;;;;;8.64;49.84;94242.63;5048073;28;20783;-68
2022/09/26 12:53:30;;;;;;;;;;;;;;;8.71;49.62;94226.75;5050308;28;19965;-67
2022/09/26 12:56:08;;;;;;;;;;;;;;;8.73;49.30;94227.34;5056467;28;20067;-67
2022/09/26 12:58:54;;;;;;;;;;;;;;;6.78;55.00;94230.41;5031073;28;20456;-66
2022/09/26 13:01:41;;;;;;;;;;;;;;;8.40;49.85;94218.28;5045697;28;19961;-67
2022/09/26 13:04:11;;;;;;;;;;;;;;;9.29;48.07;94214.78;5047663;28;19995;-67
2022/09/26 13:06:42;;;;;;;;;;;;;;;9.79;47.10;94210.06;5031813;28;20450;-68
2022/09/26 13:09:08;;;;;;;;;;;;;;;10.29;44.83;94209.53;5035302;28;19965;-68
2022/09/26 13:11:33;;;;;;;;;;;;;;;7.92;50.72;94208.47;5054028;28;19985;-67
2022/09/26 13:14:12;;;;;;;;;;;;;;;10.12;45.84;94187.91;5053173;28;20045;-67
2022/09/26 13:16:43;;;;;;;;;;;;;;;9.08;46.04;94195.38;5045927;28;19984;-67
2022/09/26 13:19:28;;;;;;;;;;;;;;;9.46;46.57;94179.88;5051301;28;20032;-68
2022/09/26 13:22:02;;;;;;;;;;;;;;;10.41;44.81;94172.44;5046439;28;19979;-67
2022/09/26 13:24:38;;;;;;;;;;;;;;;10.25;45.08;94165.75;5050210;28;19984;-68